Historique des mesures à Cassis (13260), France
Quotidien Résumé Juin 9, 2021 Unités:  Métrique/US    US   Métrique
Quotidien Hebdomadaire Mensuel Annuel
  Maximum: Minimum: Moyenne:
Température: 71.8 °F /  22.1 °C 58.1 °F /  14.5 °C 63.5 °F /  17.5 °C
Point de rosée: 58.8 °F /  14.9 °C 45 °F /  7.2 °C 51.8 °F /  11 °C
Humidité: 73% 57% 66%
Vitesse du vent: 6.3mph /  10.1km/h - 2.5mph /  4km/h
Rafales: 10.5mph /  16.9km/h - -
Vent- - West
Pression: 30.1 in /  1019.1 hPa 30 in /  1016.7 hPa -
Précipitations: 0.2 in /  5.1 mm    
Historical Graphs
 
 
Mesures pour : Juin 9, 2021
Heure Temperature Point de rosée Pression Vent Vitesse du vent Rafales Humidité Pluie (par heure)
00:11 59.4 °F /  15.2 °C 45 °F /  7.2 °C 30in /  1017.3hPa WNW 1.6mph /  2.5km/h 4.2mph /  6.8km/h 59% 0in /  0.0mm
01:11 59.2 °F /  15.1 °C 45.7 °F /  7.6 °C 30in /  1017.3hPa WNW 1.6mph /  2.5km/h 3.4mph /  5.4km/h 61% 0in /  0.0mm
02:11 59.2 °F /  15.1 °C 46.9 °F /  8.3 °C 30in /  1017.0hPa WNW 2.5mph /  4km/h 3.1mph /  5km/h 64% 0in /  0.0mm
03:11 59.2 °F /  15.1 °C 46.9 °F /  8.3 °C 30in /  1016.9hPa WNW 2mph /  3.2km/h 5.2mph /  8.3km/h 64% 0in /  0.0mm
04:11 58.8 °F /  14.9 °C 47.5 °F /  8.6 °C 30in /  1016.8hPa WNW 2mph /  3.2km/h 3.6mph /  5.8km/h 66% 0in /  0.0mm
05:11 58.8 °F /  14.9 °C 48.7 °F /  9.3 °C 30in /  1016.7hPa WNW 3.8mph /  6.1km/h 6mph /  9.7km/h 69% 0in /  0.0mm
06:11 58.1 °F /  14.5 °C 48.7 °F /  9.3 °C 30in /  1016.8hPa WNW 4.5mph /  7.2km/h 5.6mph /  9km/h 71% 0in /  0.0mm
07:11 59.2 °F /  15.1 °C 50.2 °F /  10.1 °C 30in /  1016.8hPa WNW 1.8mph /  2.9km/h 3.4mph /  5.4km/h 72% 0in /  0.0mm
08:11 59.5 °F /  15.3 °C 50.9 °F /  10.5 °C 30in /  1017.2hPa WNW 4mph /  6.5km/h 6.5mph /  10.4km/h 73% 0in /  0.0mm
09:11 61.5 °F /  16.4 °C 52.9 °F /  11.6 °C 30.1in /  1017.7hPa NW 2.2mph /  3.6km/h 3.8mph /  6.1km/h 73% 0in /  0.0mm
10:11 64 °F /  17.8 °C 54.5 °F /  12.5 °C 30.1in /  1018.2hPa Calm   2.5mph /  4km/h 71% 0in /  0.0mm
11:11 66 °F /  18.9 °C 56.3 °F /  13.5 °C 30.1in /  1018.5hPa WNW 2.5mph /  4km/h 3.1mph /  5km/h 71% 0in /  0.0mm
12:11 67.8 °F /  19.9 °C 57.7 °F /  14.3 °C 30.1in /  1018.6hPa Calm   4.2mph /  6.8km/h 70% 0in /  0.0mm
13:11 70 °F /  21.1 °C 58.8 °F /  14.9 °C 30.1in /  1018.6hPa Calm   3.6mph /  5.8km/h 68% 0.2in /  5.1mm
14:11 71.4 °F /  21.9 °C 57.7 °F /  14.3 °C 30.1in /  1018.1hPa SSW 4.9mph /  7.9km/h 7.8mph /  12.6km/h 62% 0in /  0.0mm
15:11 71.4 °F /  21.9 °C 55.9 °F /  13.3 °C 30.1in /  1017.7hPa ESE 2mph /  3.2km/h 10.5mph /  16.9km/h 58% 0in /  0.0mm
16:11 71.8 °F /  22.1 °C 56.1 °F /  13.4 °C 30in /  1017.4hPa SSW 3.8mph /  6.1km/h 9.2mph /  14.8km/h 58% 0in /  0.0mm
17:11 70.9 °F /  21.6 °C 54.9 °F /  12.7 °C 30in /  1017.0hPa SSW 6.3mph /  10.1km/h 6.3mph /  10.1km/h 57% 0in /  0.0mm
18:11 69.3 °F /  20.7 °C 53.4 °F /  11.9 °C 30in /  1017.4hPa SW 3.4mph /  5.4km/h 5.8mph /  9.4km/h 57% 0in /  0.0mm
19:11 65.8 °F /  18.8 °C 52 °F /  11.1 °C 30.1in /  1017.5hPa SW 0.9mph /  1.4km/h 1.8mph /  2.9km/h 61% 0in /  0.0mm
20:11 62.8 °F /  17.1 °C 50.7 °F /  10.4 °C 30.1in /  1017.9hPa NNW 3.1mph /  5km/h 4.9mph /  7.9km/h 65% 0in /  0.0mm
21:11 60.6 °F /  15.9 °C 50 °F /  10 °C 30.1in /  1018.3hPa Calm   3.8mph /  6.1km/h 68% 0in /  0.0mm
22:11 59.9 °F /  15.5 °C 50.2 °F /  10.1 °C 30.1in /  1018.9hPa WNW 3.6mph /  5.8km/h 5.2mph /  8.3km/h 70% 0in /  0.0mm
23:11 60.4 °F /  15.8 °C 51.1 °F /  10.6 °C 30.1in /  1019.1hPa WNW 3.6mph /  5.8km/h 3.8mph /  6.1km/h 71% 0in /  0.0mm
Observations météo à CASSIS
WU-History script by Weather Underground - 2 mb